AirNav   Duncan Aviation - Near you to keep you flying
 
 784 users online  

AZ50 Triangle Airpark
White Hills, Arizona, USA

GOING TO WHITE HILLS?


FAA INFORMATION EFFECTIVE 07 OCTOBER 2021

Location

FAA Identifier: AZ50
Lat/Long: 35-42-59.0000N 114-28-48.0000W
35-42.983333N 114-28.800000W
35.7163889,-114.4800000
(estimated)
Elevation: 2460 ft. / 750 m (estimated)
Variation: 14E (1985)
From city: 5 miles SW of WHITE HILLS, AZ
Time zone: UTC -7 (year round; does not observe DST)
Zip code: 86441

Airport Operations

Airport use: Private use. Permission required prior to landing
Activation date: 07/1982
Control tower: no
ARTCC: LOS ANGELES CENTER
FSS: PRESCOTT FLIGHT SERVICE STATION
Attendance: CONTINUOUS
Wind indicator: yes
Segmented circle: no

Nearby radio navigation aids

VOR radial/distance  VOR name  Freq  Var
BLDr117/25.1BOULDER CITY VORTAC116.7015E
IGMr301/38.2KINGMAN VOR/DME108.8015E
LASr108/39.6LAS VEGAS VORTAC116.9015E

Airport Services

Runway Information

Runway 17/35

Dimensions: 3900 x 50 ft. / 1189 x 15 m
Surface: asphalt
Runway edge markings: RYS 17 & 35 THLDS MARKED WITH ORANGE CONES.
RUNWAY 17  RUNWAY 35
Traffic pattern: leftleft
Obstructions: nonepline

Runway 8/26

Dimensions: 1844 x 50 ft. / 562 x 15 m
Surface: dirt
Runway edge markings: RYS 08 & 26 THLDS MARKED WITH ORANGE CONES.
RUNWAY 8  RUNWAY 26
Traffic pattern: leftleft
Obstructions: nonepline

Airport Ownership and Management from official FAA records

Ownership: Privately-owned
Owner: TRIANGLE AIRPARK PROPERTY OWNERS
1834 HWY 95
BULLHEAD CITY, AZ 86442
Phone 928-763-7368
Manager: TRIANGLE AIRPARK PROPERTY OWNERS
1834 HWY 95
BULLHEAD CITY, AZ 86442
Phone 928-763-7368

Airport Operational Statistics

Aircraft based on the field: 17
Single engine airplanes: 10
Multi engine airplanes: 3
Gliders airplanes: 3
Ultralights: 1
    

Additional Remarks

FOR CD CTC LOS ANGELES ARTCC AT 661-575-2079.

Instrument Procedures

There are no published instrument procedures at AZ50.

Some nearby airports with instrument procedures:

KBVU - Boulder City Municipal Airport (23 nm NW)
KIFP - Laughlin/Bullhead International Airport (34 nm S)
KHND - Henderson Executive Airport (35 nm NW)
KIGM - Kingman Airport (38 nm SE)
KLAS - Harry Reid International Airport (39 nm NW)
 
Loc | Ops | Rwys | IFR | FBO | Links
Com | Nav | Svcs | Stats | Notes
Area around AZ50 (Triangle Airpark)
 
Road maps at: MapQuest Bing Google
 
Aerial photo
WARNING: Photo may not be current or correct
Aerial photo of AZ50 (Triangle Airpark)
Do you have a better or more recent aerial photo of Triangle Airpark that you would like to share? If so, please send us your photo.

 
Sectional chart

 
Airport distance calculator
Flying to Triangle Airpark? Find the distance to fly.

From to AZ50

Sunrise and sunset
Times for 19-Oct-2021
 Local
(UTC-7)
 Zulu
(UTC)
Morning civil twilight06:2313:23
Sunrise06:4913:49
Sunset17:5700:57
Evening civil twilight18:2301:23

Current date and time
Zulu (UTC)  19-Oct-2021 11:55:29
Local (UTC-7)  19-Oct-2021 04:55:29
 
METAR
KBVU 
23nm NW 
191135Z AUTO 31008KT 10SM CLR 11/M06 A2997 RMK AO2
KHND 
36nm NW 
191056Z AUTO 20009KT 10SM CLR 09/M08 A2999 RMK AO2 SLP164 T00891078
KIFP 
38nm S 
191135Z AUTO 00000KT 10SM CLR 14/M06 A2993 RMK AO2
KIGM 
39nm SE 
191051Z AUTO 00000KT 10SM CLR 04/M02 A2998 RMK AO2 SLP113 T00441017
KLAS 
39nm NW 
191056Z 20004KT 10SM CLR 10/M06 A2998 RMK AO2 SLP143 T01001056
KLSV 
40nm NW 
191058Z 03005KT 10SM CLR 09/M07 A2998 RMK AO2A SLP143 WND DATA ESTMD ALSTG ESTMD $
KVGT 
45nm NW 
191053Z AUTO 34009KT 10SM CLR 12/M04 A2995 RMK AO2 SLP150 T01171039
TAF
KHND 
36nm NW 
190520Z 1906/2006 19008KT P6SM SKC FM191400 VRB05KT P6SM SKC FM192100 02007KT P6SM FEW250 FM200300 20006KT P6SM SCT250
KIFP 
38nm S 
190520Z 1906/2006 01008KT P6SM SKC FM191600 36010KT P6SM SKC FM200100 01005KT P6SM FEW250
KLAS 
39nm NW 
190837Z 1909/2012 21006KT P6SM SKC FM191400 VRB05KT P6SM SKC FM192000 06007KT P6SM FEW250 FM200300 21007KT P6SM SCT250
KLSV 
40nm NW 
190700Z 1907/2013 23009KT 9999 FEW100 QNH2992INS BECMG 1915/1916 13011KT 9999 FEW100 QNH3003INS BECMG 1921/1922 16012KT 9999 SKC QNH2997INS BECMG 2004/2005 VRB06KT 9999 FEW120 QNH3001INS TX21/1922Z TN08/1914Z
NOTAMs
Click for the latest NOTAMs
NOTAMs are issued by the DoD/FAA and will open in a separate window not controlled by AirNav.

 

 
 

Would you like to see your business listed on this page?

 If your business provides an interesting product or service to pilots, flight crews, aircraft, or users of the Triangle Airpark, you should consider listing it here.  To start the listing process, click on the button below
 
Add a business
 

Other Pages about Triangle Airpark

Update a link
 
Copyright © AirNav, LLC. All rights reserved. Privacy Policy  Contact